createdAt,value
2018-06-29T00:01:24.728Z,77.32
2018-06-29T00:03:52.551Z,76.88
2018-06-29T00:06:20.387Z,76.59
2018-06-29T00:08:48.494Z,77.31
2018-06-29T00:11:16.316Z,76.65
2018-06-29T00:13:44.160Z,76.74
2018-06-29T00:16:11.951Z,77.11
2018-06-29T00:18:40.103Z,76.74
2018-06-29T00:21:07.958Z,77.37
2018-06-29T00:23:35.742Z,77.05
2018-06-29T00:26:03.572Z,77.59
2018-06-29T00:28:31.598Z,78.25
2018-06-29T00:30:59.610Z,78.20
2018-06-29T00:33:27.413Z,78.25
2018-06-29T00:35:55.207Z,78.78
2018-06-29T00:38:22.976Z,77.94
2018-06-29T00:40:50.834Z,78.59
2018-06-29T00:43:18.615Z,78.74
2018-06-29T00:45:46.458Z,78.57
2018-06-29T00:48:14.315Z,78.84
2018-06-29T00:50:42.141Z,78.85
2018-06-29T00:53:09.953Z,78.64
2018-06-29T00:55:37.778Z,78.00
2018-06-29T00:58:05.641Z,78.07
2018-06-29T01:00:33.452Z,77.91
2018-06-29T01:03:01.268Z,78.26
2018-06-29T01:05:29.128Z,78.57
2018-06-29T01:07:57.272Z,78.67
2018-06-29T01:10:25.135Z,78.41
2018-06-29T01:12:52.966Z,78.33
2018-06-29T01:15:20.807Z,77.68
2018-06-29T01:17:48.631Z,78.69
2018-06-29T01:20:16.431Z,79.44
2018-06-29T01:22:44.273Z,80.43
2018-06-29T01:25:12.112Z,79.67
2018-06-29T01:27:39.934Z,79.44
2018-06-29T01:30:07.804Z,79.80
2018-06-29T01:32:35.645Z,80.49
2018-06-29T01:35:03.517Z,80.68
2018-06-29T01:37:31.373Z,81.09
2018-06-29T01:39:59.201Z,81.59
2018-06-29T01:42:27.027Z,80.96
2018-06-29T01:44:55.250Z,81.31
2018-06-29T01:47:23.123Z,81.84
2018-06-29T01:49:50.952Z,80.37
2018-06-29T01:52:18.856Z,79.51
2018-06-29T01:54:46.653Z,79.03
2018-06-29T01:57:14.459Z,77.51
2018-06-29T01:59:42.669Z,77.74
2018-06-29T02:02:10.497Z,78.23
2018-06-29T02:04:38.324Z,78.93
2018-06-29T02:07:06.161Z,78.36
2018-06-29T02:09:34.061Z,77.99
2018-06-29T02:12:02.026Z,77.05
2018-06-29T02:14:29.846Z,77.09
2018-06-29T02:16:57.685Z,77.90
2018-06-29T02:19:25.536Z,77.66
2018-06-29T02:21:53.352Z,78.12
2018-06-29T02:24:21.245Z,78.82
2018-06-29T02:26:49.071Z,79.10
2018-06-29T02:29:16.883Z,78.89
2018-06-29T02:31:44.697Z,79.62
2018-06-29T02:34:12.516Z,79.52
2018-06-29T02:36:40.361Z,78.76
2018-06-29T02:39:10.286Z,79.91
2018-06-29T02:41:38.170Z,79.90
2018-06-29T02:44:05.989Z,80.22
2018-06-29T02:46:33.819Z,79.30
2018-06-29T02:49:01.646Z,77.85
2018-06-29T02:51:29.457Z,76.89
2018-06-29T02:53:57.258Z,75.92
2018-06-29T02:56:25.131Z,75.96
2018-06-29T02:58:52.976Z,74.39
2018-06-29T03:01:20.875Z,74.53
2018-06-29T03:03:48.690Z,74.25
2018-06-29T03:06:16.487Z,74.58
2018-06-29T03:08:44.333Z,75.01
2018-06-29T03:11:12.161Z,74.65
2018-06-29T03:13:39.959Z,73.05
2018-06-29T03:16:08.011Z,71.93
2018-06-29T03:18:35.903Z,70.54
2018-06-29T03:21:04.132Z,70.68
2018-06-29T03:23:32.000Z,71.21
2018-06-29T03:25:59.888Z,71.22
2018-06-29T03:28:27.694Z,70.05
2018-06-29T03:30:55.545Z,68.36
2018-06-29T03:33:23.341Z,66.16
2018-06-29T03:35:51.357Z,55.75
2018-06-29T03:38:19.196Z,50.10
2018-06-29T03:40:47.005Z,44.20
2018-06-29T03:43:14.813Z,39.32
2018-06-29T03:45:42.614Z,37.00
2018-06-29T03:48:10.427Z,34.56
2018-06-29T03:50:38.224Z,32.99
2018-06-29T03:53:06.036Z,34.12
2018-06-29T03:55:33.845Z,32.46
2018-06-29T03:58:01.659Z,31.32
2018-06-29T04:00:29.475Z,31.27
2018-06-29T04:02:57.295Z,32.23
2018-06-29T04:05:25.151Z,29.99
2018-06-29T04:07:53.034Z,29.17
2018-06-29T04:10:20.854Z,27.35
2018-06-29T04:12:48.693Z,25.93
2018-06-29T04:15:16.624Z,25.14
2018-06-29T04:17:44.489Z,28.81
2018-06-29T04:20:12.332Z,30.90
2018-06-29T04:22:40.198Z,35.37
2018-06-29T04:25:08.067Z,36.07
2018-06-29T04:27:35.945Z,31.92
2018-06-29T04:30:04.296Z,28.67
2018-06-29T04:32:32.123Z,26.69
2018-06-29T04:34:59.945Z,27.99
2018-06-29T04:37:27.742Z,31.67
2018-06-29T04:39:55.535Z,34.76
2018-06-29T04:42:23.324Z,32.49
2018-06-29T04:44:51.142Z,32.60
2018-06-29T04:47:19.384Z,33.46
2018-06-29T04:49:47.236Z,36.36
2018-06-29T04:52:15.069Z,34.63
2018-06-29T04:54:42.854Z,35.11
2018-06-29T04:57:10.720Z,31.28
2018-06-29T04:59:38.530Z,29.41
2018-06-29T05:02:06.383Z,30.57
2018-06-29T05:04:34.206Z,31.73
2018-06-29T05:07:02.039Z,30.42
2018-06-29T05:09:29.989Z,28.29
2018-06-29T05:11:57.813Z,31.61
2018-06-29T05:14:25.613Z,35.56
2018-06-29T05:16:53.532Z,37.00
2018-06-29T05:19:21.324Z,38.58
2018-06-29T05:21:49.128Z,41.21
2018-06-29T05:24:17.270Z,41.40
2018-06-29T05:26:45.084Z,39.54
2018-06-29T05:29:12.917Z,36.84
2018-06-29T05:31:40.738Z,42.17
2018-06-29T05:34:08.587Z,44.74
2018-06-29T05:36:36.748Z,41.82
2018-06-29T05:39:07.448Z,41.93
2018-06-29T05:41:35.446Z,41.37
2018-06-29T05:44:03.488Z,39.37
2018-06-29T05:46:31.309Z,35.25
2018-06-29T05:48:59.149Z,33.87
2018-06-29T05:51:27.026Z,33.24
2018-06-29T05:53:54.876Z,36.48
2018-06-29T05:56:22.709Z,35.11
2018-06-29T05:58:50.554Z,35.46
2018-06-29T06:01:18.678Z,34.32
2018-06-29T06:03:46.524Z,36.34
2018-06-29T06:06:14.336Z,40.55
2018-06-29T06:08:42.160Z,40.71
2018-06-29T06:11:10.012Z,37.49
2018-06-29T06:13:37.808Z,37.71
2018-06-29T06:16:05.729Z,37.98
2018-06-29T06:18:33.585Z,36.79
2018-06-29T06:21:01.409Z,37.18
2018-06-29T06:23:29.229Z,39.45
2018-06-29T06:25:57.064Z,39.61
2018-06-29T06:28:24.903Z,40.15
2018-06-29T06:30:53.061Z,40.86
2018-06-29T06:33:20.911Z,41.44
2018-06-29T06:35:49.344Z,41.27
2018-06-29T06:38:17.225Z,42.27
2018-06-29T06:40:45.059Z,44.51
2018-06-29T06:43:12.862Z,42.19
2018-06-29T06:45:40.689Z,42.21
2018-06-29T06:48:08.791Z,43.13
2018-06-29T06:50:36.622Z,43.87
2018-06-29T06:53:04.527Z,47.29
2018-06-29T06:55:32.680Z,48.12
2018-06-29T06:58:00.466Z,47.57
2018-06-29T07:00:28.234Z,47.52
2018-06-29T07:02:56.054Z,45.58
2018-06-29T07:05:23.922Z,42.16
2018-06-29T07:07:51.728Z,36.53
2018-06-29T07:10:19.598Z,35.57
2018-06-29T07:12:47.797Z,34.43
2018-06-29T07:15:15.655Z,34.67
2018-06-29T07:17:43.519Z,36.19
2018-06-29T07:20:11.347Z,32.21
2018-06-29T07:22:39.244Z,30.50
2018-06-29T07:25:07.205Z,29.00
2018-06-29T07:27:35.128Z,30.75
2018-06-29T07:30:04.025Z,28.34
2018-06-29T07:32:31.903Z,29.67
2018-06-29T07:34:59.746Z,30.00
2018-06-29T07:37:27.566Z,32.29
2018-06-29T07:39:55.386Z,45.06
2018-06-29T07:42:23.277Z,48.83
2018-06-29T07:44:51.089Z,51.17
2018-06-29T07:47:18.970Z,50.67
2018-06-29T07:49:46.822Z,50.94
2018-06-29T07:52:14.635Z,54.51
2018-06-29T07:54:42.466Z,55.66
2018-06-29T07:57:10.323Z,55.79
2018-06-29T07:59:38.572Z,58.57
2018-06-29T08:02:06.497Z,59.39
2018-06-29T08:04:34.416Z,60.87
2018-06-29T08:07:02.426Z,57.73
2018-06-29T08:09:30.334Z,55.00
2018-06-29T08:11:58.343Z,55.26
2018-06-29T08:14:26.246Z,53.65
2018-06-29T08:16:54.314Z,51.32
2018-06-29T08:19:22.100Z,49.02
2018-06-29T08:21:49.994Z,48.45
2018-06-29T08:24:18.035Z,44.96
2018-06-29T08:26:45.910Z,43.45
2018-06-29T08:29:13.854Z,47.02
2018-06-29T08:31:41.775Z,50.67
2018-06-29T08:34:09.745Z,55.14
2018-06-29T08:36:37.744Z,56.61
2018-06-29T08:39:07.758Z,63.64
2018-06-29T08:41:35.824Z,65.79
2018-06-29T08:44:04.231Z,69.12
2018-06-29T08:46:32.162Z,71.96
2018-06-29T08:49:00.121Z,71.08
2018-06-29T08:51:27.990Z,72.71
2018-06-29T08:53:55.907Z,73.68
2018-06-29T08:56:23.806Z,73.44
2018-06-29T08:58:51.726Z,72.07
2018-06-29T09:01:19.907Z,67.51
2018-06-29T09:03:47.876Z,64.62
2018-06-29T09:06:15.872Z,65.07
2018-06-29T09:08:43.807Z,62.27
2018-06-29T09:11:11.657Z,60.14
2018-06-29T09:13:39.597Z,58.86
2018-06-29T09:16:07.494Z,61.59
2018-06-29T09:18:35.443Z,53.02
2018-06-29T09:21:03.380Z,55.68
2018-06-29T09:23:31.486Z,53.98
2018-06-29T09:25:59.525Z,51.96
2018-06-29T09:28:27.626Z,47.31
2018-06-29T09:30:55.612Z,51.35
2018-06-29T09:33:23.545Z,48.86
2018-06-29T09:35:51.509Z,53.23
2018-06-29T09:38:19.426Z,49.53
2018-06-29T09:40:47.271Z,48.65
2018-06-29T09:43:15.202Z,46.91
2018-06-29T09:45:43.166Z,47.28
2018-06-29T09:48:11.008Z,47.45
2018-06-29T09:50:38.909Z,46.61
2018-06-29T09:53:06.824Z,45.35
2018-06-29T09:55:34.761Z,43.71
2018-06-29T09:58:02.953Z,47.94
2018-06-29T10:00:31.835Z,47.05
2018-06-29T10:03:00.461Z,44.00
2018-06-29T10:05:28.895Z,46.28
2018-06-29T10:07:57.119Z,41.88
2018-06-29T10:10:25.097Z,40.99
2018-06-29T10:12:53.149Z,39.80
2018-06-29T10:15:21.104Z,39.87
2018-06-29T10:17:49.448Z,37.51
2018-06-29T10:20:17.307Z,39.65
2018-06-29T10:22:45.157Z,40.50
2018-06-29T10:25:13.492Z,44.81
2018-06-29T10:27:41.351Z,41.35
2018-06-29T10:30:09.293Z,41.84
2018-06-29T10:32:37.871Z,41.49
2018-06-29T10:35:06.259Z,39.46
2018-06-29T10:37:34.122Z,41.01
2018-06-29T10:40:02.027Z,39.52
2018-06-29T10:42:30.054Z,43.36
2018-06-29T10:44:58.001Z,40.50
2018-06-29T10:47:25.891Z,43.65
2018-06-29T10:49:53.859Z,48.87
2018-06-29T10:52:21.970Z,53.28
2018-06-29T10:54:49.913Z,56.58
2018-06-29T10:57:17.814Z,57.01
2018-06-29T10:59:45.721Z,57.14
2018-06-29T11:02:13.637Z,57.36
2018-06-29T11:04:41.581Z,54.79
2018-06-29T11:07:09.479Z,55.21
2018-06-29T11:09:37.368Z,53.48
2018-06-29T11:12:05.299Z,54.77
2018-06-29T11:14:33.261Z,56.38
2018-06-29T11:17:01.175Z,55.91
2018-06-29T11:19:29.124Z,54.46
2018-06-29T11:21:57.033Z,57.04
2018-06-29T11:24:24.947Z,55.40
2018-06-29T11:26:52.878Z,57.04
2018-06-29T11:29:20.797Z,55.41
2018-06-29T11:31:48.734Z,55.74
2018-06-29T11:34:16.668Z,56.74
2018-06-29T11:36:44.498Z,57.22
2018-06-29T11:39:13.847Z,53.50
2018-06-29T11:41:42.450Z,51.65
2018-06-29T11:44:10.650Z,51.16
2018-06-29T11:46:38.857Z,51.80
2018-06-29T11:49:07.035Z,52.15
2018-06-29T11:51:34.900Z,52.83
2018-06-29T11:54:02.745Z,55.67
2018-06-29T11:56:30.578Z,57.32
2018-06-29T11:58:58.475Z,57.52
2018-06-29T12:01:26.336Z,59.91
2018-06-29T12:03:54.214Z,63.23
2018-06-29T12:06:22.050Z,64.74
2018-06-29T12:08:49.896Z,63.33
2018-06-29T12:11:17.768Z,66.45
2018-06-29T12:13:45.626Z,65.16
2018-06-29T12:16:13.466Z,65.92
2018-06-29T12:18:41.349Z,67.70
2018-06-29T12:21:09.379Z,63.39
2018-06-29T12:23:37.310Z,62.48
2018-06-29T12:26:05.251Z,64.40
2018-06-29T12:28:33.135Z,58.84
2018-06-29T12:31:01.029Z,61.35
2018-06-29T12:33:28.935Z,61.63
2018-06-29T12:35:56.794Z,62.64
2018-06-29T12:38:24.639Z,61.37
2018-06-29T12:40:52.506Z,63.67
2018-06-29T12:43:20.442Z,65.95
2018-06-29T12:45:48.268Z,65.05
2018-06-29T12:48:16.099Z,64.86
2018-06-29T12:50:43.986Z,68.70
2018-06-29T12:53:12.042Z,69.04
2018-06-29T12:55:40.313Z,71.96
2018-06-29T12:58:08.211Z,70.48
2018-06-29T13:00:36.087Z,70.84
2018-06-29T13:03:03.948Z,68.42
2018-06-29T13:05:31.922Z,67.95
2018-06-29T13:07:59.665Z,69.82
2018-06-29T13:10:27.486Z,70.09
2018-06-29T13:12:55.827Z,70.33
2018-06-29T13:15:23.664Z,72.41
2018-06-29T13:17:51.518Z,72.40
2018-06-29T13:20:19.357Z,71.50
2018-06-29T13:22:47.176Z,71.53
2018-06-29T13:25:15.062Z,69.44
2018-06-29T13:27:42.863Z,70.96
2018-06-29T13:30:10.968Z,70.78
2018-06-29T13:32:38.805Z,72.79
2018-06-29T13:35:06.636Z,72.14
2018-06-29T13:37:34.501Z,71.86
2018-06-29T13:40:02.455Z,73.06
2018-06-29T13:42:30.326Z,72.38
2018-06-29T13:44:58.240Z,72.30
2018-06-29T13:47:26.092Z,74.26
2018-06-29T13:49:54.151Z,74.23
2018-06-29T13:52:22.123Z,73.89
2018-06-29T13:54:50.043Z,73.33
2018-06-29T13:57:17.929Z,74.29
2018-06-29T13:59:45.812Z,74.60
2018-06-29T14:02:13.726Z,75.29
2018-06-29T14:04:41.552Z,74.62
2018-06-29T14:07:09.464Z,75.71
2018-06-29T14:09:37.449Z,75.69
2018-06-29T14:12:05.342Z,78.61
2018-06-29T14:14:33.168Z,77.68
2018-06-29T14:17:01.013Z,77.02
2018-06-29T14:19:28.889Z,78.21
2018-06-29T14:21:56.861Z,77.75
2018-06-29T14:24:24.771Z,76.59
2018-06-29T14:26:52.672Z,74.19
2018-06-29T14:29:20.541Z,73.15
2018-06-29T14:31:48.427Z,73.61
2018-06-29T14:34:16.372Z,72.49
2018-06-29T14:36:44.317Z,73.81
2018-06-29T14:39:12.177Z,73.08
2018-06-29T14:41:40.083Z,73.36
2018-06-29T14:44:08.622Z,72.27
2018-06-29T14:46:37.299Z,72.80
2018-06-29T14:49:05.294Z,72.27
2018-06-29T14:51:33.192Z,74.00
2018-06-29T14:54:01.668Z,73.56
2018-06-29T14:56:29.483Z,72.75
2018-06-29T14:58:57.417Z,74.80
2018-06-29T15:01:25.253Z,72.49
2018-06-29T15:03:53.078Z,72.15
2018-06-29T15:06:20.943Z,72.46
2018-06-29T15:08:48.845Z,72.96
2018-06-29T15:11:16.774Z,75.04
2018-06-29T15:13:44.783Z,75.92
2018-06-29T15:16:12.635Z,76.38
2018-06-29T15:18:41.116Z,77.89
2018-06-29T15:21:09.055Z,77.11
2018-06-29T15:23:36.903Z,78.99
2018-06-29T15:26:06.120Z,77.72
2018-06-29T15:28:33.971Z,77.92
2018-06-29T15:31:01.823Z,75.91
2018-06-29T15:33:29.678Z,75.77
2018-06-29T15:35:57.556Z,74.83
2018-06-29T15:38:25.634Z,73.22
2018-06-29T15:40:53.595Z,73.79
2018-06-29T15:43:21.444Z,73.23
2018-06-29T15:45:49.386Z,72.12
2018-06-29T15:48:17.593Z,71.41
2018-06-29T15:50:45.453Z,69.71
2018-06-29T15:53:13.284Z,70.10
2018-06-29T15:55:41.103Z,69.04
2018-06-29T15:58:08.967Z,68.18
2018-06-29T16:00:37.227Z,67.68
2018-06-29T16:03:05.520Z,68.22
2018-06-29T16:05:33.349Z,69.39
2018-06-29T16:08:01.458Z,69.72
2018-06-29T16:10:29.310Z,70.38
2018-06-29T16:12:57.154Z,71.51
2018-06-29T16:15:25.045Z,73.44
2018-06-29T16:17:53.290Z,73.94
2018-06-29T16:20:21.159Z,74.68
2018-06-29T16:22:49.113Z,74.77
2018-06-29T16:25:16.962Z,75.02
2018-06-29T16:27:44.802Z,74.41
2018-06-29T16:30:12.729Z,75.29
2018-06-29T16:32:41.064Z,75.67
2018-06-29T16:35:08.959Z,75.72
2018-06-29T16:37:36.897Z,75.76
2018-06-29T16:40:04.761Z,75.99
2018-06-29T16:42:32.654Z,76.06
2018-06-29T16:45:00.497Z,77.12
2018-06-29T16:47:28.401Z,76.31
2018-06-29T16:49:56.316Z,77.01
2018-06-29T16:52:24.272Z,77.21
2018-06-29T16:54:52.270Z,77.81
2018-06-29T16:57:20.191Z,77.77
2018-06-29T16:59:48.051Z,78.18
2018-06-29T17:02:15.960Z,78.05
2018-06-29T17:04:43.859Z,77.28
2018-06-29T17:07:11.726Z,77.30
2018-06-29T17:09:39.570Z,78.23
2018-06-29T17:12:07.430Z,78.03
2018-06-29T17:14:35.245Z,77.69
2018-06-29T17:17:03.848Z,78.13
2018-06-29T17:19:31.762Z,78.84
2018-06-29T17:21:59.695Z,77.43
2018-06-29T17:24:27.568Z,77.25
2018-06-29T17:26:55.612Z,77.40
2018-06-29T17:29:23.438Z,77.49
2018-06-29T17:31:51.310Z,78.12
2018-06-29T17:34:23.060Z,78.19
2018-06-29T17:36:50.971Z,77.40
2018-06-29T17:39:18.852Z,77.69
2018-06-29T17:41:50.637Z,78.06
2018-06-29T17:44:18.491Z,77.24
2018-06-29T17:46:54.798Z,76.27
2018-06-29T17:49:23.028Z,76.29
2018-06-29T17:51:50.907Z,74.83
2018-06-29T17:54:18.919Z,74.98
2018-06-29T17:56:46.800Z,74.88
2018-06-29T17:59:14.746Z,73.51
2018-06-29T18:01:42.642Z,73.37
2018-06-29T18:04:10.563Z,73.90
2018-06-29T18:06:38.472Z,73.92
2018-06-29T18:09:08.140Z,74.55
2018-06-29T18:11:36.476Z,73.64
2018-06-29T18:14:04.572Z,73.50
2018-06-29T18:16:32.599Z,72.98
2018-06-29T18:19:00.745Z,73.74
2018-06-29T18:21:28.742Z,73.20
2018-06-29T18:23:57.543Z,74.74
2018-06-29T18:26:25.756Z,73.78
2018-06-29T18:28:54.077Z,74.28
2018-06-29T18:31:22.312Z,75.40
2018-06-29T18:33:50.202Z,74.80
2018-06-29T18:36:18.236Z,74.90
2018-06-29T18:38:46.297Z,73.19
2018-06-29T18:41:14.810Z,74.25
2018-06-29T18:43:42.691Z,74.18
2018-06-29T18:46:10.635Z,74.24
2018-06-29T18:48:38.633Z,73.68
2018-06-29T18:51:06.658Z,73.50
2018-06-29T18:53:34.601Z,74.14
2018-06-29T18:56:02.725Z,75.77
2018-06-29T18:58:30.665Z,75.91
2018-06-29T19:01:00.410Z,76.08
2018-06-29T19:03:28.330Z,76.47
2018-06-29T19:05:56.303Z,76.51
2018-06-29T19:08:24.202Z,76.73
2018-06-29T19:10:52.117Z,75.91
2018-06-29T19:13:20.212Z,76.17
2018-06-29T19:15:48.249Z,76.52
2018-06-29T19:18:16.232Z,77.32
2018-06-29T19:20:44.244Z,77.67
2018-06-29T19:23:12.166Z,77.39
2018-06-29T19:25:40.162Z,78.87
2018-06-29T19:28:08.037Z,78.03
2018-06-29T19:30:35.941Z,78.66
2018-06-29T19:33:03.884Z,79.50
2018-06-29T19:35:31.765Z,78.19
2018-06-29T19:37:59.743Z,77.58
2018-06-29T19:40:27.657Z,77.55
2018-06-29T19:42:55.551Z,78.04
2018-06-29T19:45:23.507Z,76.51
2018-06-29T19:47:51.326Z,75.49
2018-06-29T19:50:19.324Z,75.45
2018-06-29T19:52:47.181Z,76.41
2018-06-29T19:55:15.059Z,77.29
2018-06-29T19:57:43.743Z,76.62
2018-06-29T20:00:11.640Z,76.25
2018-06-29T20:02:39.450Z,78.39
2018-06-29T20:05:07.353Z,77.77
2018-06-29T20:07:35.162Z,79.71
2018-06-29T20:10:03.073Z,80.23
2018-06-29T20:12:30.920Z,80.07
2018-06-29T20:14:58.813Z,80.81
2018-06-29T20:17:26.649Z,81.47
2018-06-29T20:19:54.470Z,80.90
2018-06-29T20:22:22.306Z,80.52
2018-06-29T20:24:50.145Z,81.66
2018-06-29T20:27:17.977Z,81.76
2018-06-29T20:29:45.834Z,81.45
2018-06-29T20:32:13.971Z,80.50
2018-06-29T20:34:41.849Z,81.13
2018-06-29T20:37:09.678Z,80.53
2018-06-29T20:39:37.533Z,80.59
2018-06-29T20:42:05.503Z,80.19
2018-06-29T20:44:33.352Z,80.11
2018-06-29T20:47:01.206Z,80.38
2018-06-29T20:49:29.076Z,80.06
2018-06-29T20:51:56.931Z,79.75
2018-06-29T20:54:24.907Z,79.79
2018-06-29T20:56:52.780Z,78.86
2018-06-29T20:59:20.610Z,79.29
2018-06-29T21:01:48.550Z,79.03
2018-06-29T21:04:16.379Z,78.73
2018-06-29T21:06:44.236Z,78.14
2018-06-29T21:09:12.596Z,79.40
2018-06-29T21:11:41.262Z,79.45
2018-06-29T21:14:09.093Z,79.53
2018-06-29T21:16:36.996Z,78.64
2018-06-29T21:19:04.882Z,78.30
2018-06-29T21:21:32.768Z,78.21
2018-06-29T21:24:00.623Z,78.59
2018-06-29T21:26:28.480Z,78.43
2018-06-29T21:28:56.294Z,78.25
2018-06-29T21:31:24.115Z,78.55
2018-06-29T21:33:51.990Z,78.37
2018-06-29T21:36:19.804Z,77.33
2018-06-29T21:38:47.612Z,76.89
2018-06-29T21:41:15.427Z,76.49
2018-06-29T21:43:43.384Z,76.21
2018-06-29T21:46:11.274Z,75.76
2018-06-29T21:48:39.104Z,76.42
2018-06-29T21:51:06.950Z,76.92
2018-06-29T21:53:34.805Z,77.27
2018-06-29T21:56:02.655Z,76.21
2018-06-29T21:58:30.503Z,76.56
2018-06-29T22:00:58.364Z,76.54
2018-06-29T22:03:26.188Z,76.44
2018-06-29T22:05:54.019Z,76.91
2018-06-29T22:08:21.844Z,76.68
2018-06-29T22:10:49.660Z,76.44
2018-06-29T22:13:17.509Z,76.32
2018-06-29T22:15:45.332Z,77.55
2018-06-29T22:18:13.155Z,77.57
2018-06-29T22:20:41.037Z,77.08
2018-06-29T22:23:08.864Z,77.09
2018-06-29T22:25:36.723Z,76.79
2018-06-29T22:28:05.117Z,76.68
2018-06-29T22:30:32.964Z,76.63
2018-06-29T22:33:00.789Z,76.54
2018-06-29T22:35:28.606Z,76.82
2018-06-29T22:37:56.404Z,75.59
2018-06-29T22:40:24.227Z,76.26
2018-06-29T22:42:52.060Z,75.99
2018-06-29T22:45:19.883Z,76.04
2018-06-29T22:47:47.696Z,75.55
2018-06-29T22:50:15.528Z,75.27
2018-06-29T22:52:43.348Z,76.22
2018-06-29T22:55:11.208Z,76.49
2018-06-29T22:57:39.073Z,76.03
2018-06-29T23:00:07.008Z,75.45
2018-06-29T23:02:34.773Z,76.98
2018-06-29T23:05:02.770Z,76.53
2018-06-29T23:07:30.682Z,76.20
2018-06-29T23:09:58.584Z,76.72
2018-06-29T23:12:26.513Z,76.00
2018-06-29T23:14:54.394Z,75.95
2018-06-29T23:17:22.292Z,77.52
2018-06-29T23:19:50.162Z,76.68
2018-06-29T23:22:18.031Z,76.66
2018-06-29T23:24:45.926Z,76.75
2018-06-29T23:27:13.875Z,75.63
2018-06-29T23:29:41.748Z,76.18
2018-06-29T23:32:09.612Z,76.22
2018-06-29T23:34:37.516Z,76.69
2018-06-29T23:37:05.413Z,76.15
2018-06-29T23:39:33.322Z,75.89
2018-06-29T23:42:01.239Z,75.95
2018-06-29T23:44:29.133Z,75.36
2018-06-29T23:46:57.006Z,74.30
2018-06-29T23:49:24.906Z,74.89
2018-06-29T23:51:52.878Z,75.04
2018-06-29T23:54:20.847Z,73.67
2018-06-29T23:56:48.781Z,75.09
2018-06-29T23:59:16.732Z,73.94
